sensor_id;sensor_type;location;lat;lon;timestamp;P1;durP1;ratioP1;P2;durP2;ratioP2
64816;SDS011;69411;45.656;11.740;2023-07-22T00:01:04;9.73;;;2.90;;
64816;SDS011;69411;45.656;11.740;2023-07-22T00:03:30;4.00;;;3.10;;
64816;SDS011;69411;45.656;11.740;2023-07-22T00:06:29;4.68;;;3.30;;
64816;SDS011;69411;45.656;11.740;2023-07-22T00:08:49;6.03;;;3.33;;
64816;SDS011;69411;45.656;11.740;2023-07-22T00:11:15;5.63;;;3.50;;
64816;SDS011;69411;45.656;11.740;2023-07-22T00:13:41;5.65;;;3.72;;
64816;SDS011;69411;45.656;11.740;2023-07-22T00:16:09;6.18;;;3.90;;
64816;SDS011;69411;45.656;11.740;2023-07-22T00:18:36;7.88;;;4.47;;
64816;SDS011;69411;45.656;11.740;2023-07-22T00:21:02;8.13;;;3.88;;
64816;SDS011;69411;45.656;11.740;2023-07-22T00:23:28;6.60;;;3.90;;
64816;SDS011;69411;45.656;11.740;2023-07-22T00:25:55;7.88;;;3.85;;
64816;SDS011;69411;45.656;11.740;2023-07-22T00:28:21;5.68;;;3.83;;
64816;SDS011;69411;45.656;11.740;2023-07-22T00:30:47;4.65;;;3.15;;
64816;SDS011;69411;45.656;11.740;2023-07-22T00:33:14;5.07;;;3.20;;
64816;SDS011;69411;45.656;11.740;2023-07-22T00:35:40;5.75;;;3.15;;
64816;SDS011;69411;45.656;11.740;2023-07-22T00:38:06;6.22;;;3.20;;
64816;SDS011;69411;45.656;11.740;2023-07-22T00:40:32;4.00;;;2.83;;
64816;SDS011;69411;45.656;11.740;2023-07-22T00:42:58;4.72;;;3.22;;
64816;SDS011;69411;45.656;11.740;2023-07-22T00:45:27;4.47;;;2.90;;
64816;SDS011;69411;45.656;11.740;2023-07-22T00:47:53;3.58;;;3.05;;
64816;SDS011;69411;45.656;11.740;2023-07-22T00:50:19;5.68;;;3.20;;
64816;SDS011;69411;45.656;11.740;2023-07-22T00:52:46;7.43;;;3.50;;
64816;SDS011;69411;45.656;11.740;2023-07-22T00:55:12;5.38;;;3.30;;
64816;SDS011;69411;45.656;11.740;2023-07-22T00:57:38;5.20;;;3.58;;
64816;SDS011;69411;45.656;11.740;2023-07-22T01:00:05;8.07;;;4.05;;
64816;SDS011;69411;45.656;11.740;2023-07-22T01:02:31;5.57;;;4.10;;
64816;SDS011;69411;45.656;11.740;2023-07-22T01:04:58;6.72;;;4.00;;
64816;SDS011;69411;45.656;11.740;2023-07-22T01:07:24;6.93;;;4.15;;
64816;SDS011;69411;45.656;11.740;2023-07-22T01:09:55;6.72;;;3.75;;
64816;SDS011;69411;45.656;11.740;2023-07-22T01:12:22;5.13;;;3.45;;
64816;SDS011;69411;45.656;11.740;2023-07-22T01:14:48;7.75;;;3.40;;
64816;SDS011;69411;45.656;11.740;2023-07-22T01:17:14;5.63;;;3.90;;
64816;SDS011;69411;45.656;11.740;2023-07-22T01:19:40;8.82;;;4.18;;
64816;SDS011;69411;45.656;11.740;2023-07-22T01:22:06;7.97;;;4.78;;
64816;SDS011;69411;45.656;11.740;2023-07-22T01:24:33;9.68;;;4.65;;
64816;SDS011;69411;45.656;11.740;2023-07-22T01:26:59;7.97;;;4.53;;
64816;SDS011;69411;45.656;11.740;2023-07-22T01:29:26;7.85;;;4.18;;
64816;SDS011;69411;45.656;11.740;2023-07-22T01:31:53;6.85;;;3.72;;
64816;SDS011;69411;45.656;11.740;2023-07-22T01:34:20;6.50;;;3.30;;
64816;SDS011;69411;45.656;11.740;2023-07-22T01:36:47;5.90;;;3.20;;
64816;SDS011;69411;45.656;11.740;2023-07-22T01:39:14;5.18;;;2.88;;
64816;SDS011;69411;45.656;11.740;2023-07-22T01:41:42;6.28;;;2.65;;
64816;SDS011;69411;45.656;11.740;2023-07-22T01:44:08;5.90;;;3.10;;
64816;SDS011;69411;45.656;11.740;2023-07-22T01:46:35;5.43;;;2.65;;
64816;SDS011;69411;45.656;11.740;2023-07-22T01:49:04;4.53;;;2.83;;
64816;SDS011;69411;45.656;11.740;2023-07-22T01:51:34;5.30;;;2.70;;
64816;SDS011;69411;45.656;11.740;2023-07-22T01:54:00;6.35;;;2.88;;
64816;SDS011;69411;45.656;11.740;2023-07-22T01:56:26;5.45;;;2.88;;
64816;SDS011;69411;45.656;11.740;2023-07-22T01:58:52;8.52;;;3.08;;
64816;SDS011;69411;45.656;11.740;2023-07-22T02:01:18;4.22;;;2.60;;
64816;SDS011;69411;45.656;11.740;2023-07-22T02:03:44;5.40;;;2.90;;
64816;SDS011;69411;45.656;11.740;2023-07-22T02:06:12;5.60;;;2.85;;
64816;SDS011;69411;45.656;11.740;2023-07-22T02:08:38;5.50;;;3.05;;
64816;SDS011;69411;45.656;11.740;2023-07-22T02:11:06;5.85;;;3.22;;
64816;SDS011;69411;45.656;11.740;2023-07-22T02:13:34;5.00;;;2.75;;
64816;SDS011;69411;45.656;11.740;2023-07-22T02:16:01;3.92;;;2.63;;
64816;SDS011;69411;45.656;11.740;2023-07-22T02:18:27;6.63;;;3.20;;
64816;SDS011;69411;45.656;11.740;2023-07-22T02:20:53;3.83;;;2.70;;
64816;SDS011;69411;45.656;11.740;2023-07-22T02:23:20;5.25;;;2.83;;
64816;SDS011;69411;45.656;11.740;2023-07-22T02:25:52;4.35;;;2.72;;
64816;SDS011;69411;45.656;11.740;2023-07-22T02:28:19;5.82;;;2.97;;
64816;SDS011;69411;45.656;11.740;2023-07-22T02:30:47;5.25;;;3.10;;
64816;SDS011;69411;45.656;11.740;2023-07-22T02:33:14;5.88;;;2.75;;
64816;SDS011;69411;45.656;11.740;2023-07-22T02:35:41;4.53;;;2.53;;
64816;SDS011;69411;45.656;11.740;2023-07-22T02:38:07;3.58;;;2.67;;
64816;SDS011;69411;45.656;11.740;2023-07-22T02:40:34;3.17;;;2.22;;
64816;SDS011;69411;45.656;11.740;2023-07-22T02:43:00;6.25;;;3.10;;
64816;SDS011;69411;45.656;11.740;2023-07-22T02:45:26;5.22;;;2.90;;
64816;SDS011;69411;45.656;11.740;2023-07-22T02:47:52;6.35;;;3.10;;
64816;SDS011;69411;45.656;11.740;2023-07-22T02:50:19;6.80;;;2.63;;
64816;SDS011;69411;45.656;11.740;2023-07-22T02:52:45;4.57;;;2.72;;
64816;SDS011;69411;45.656;11.740;2023-07-22T02:55:14;3.97;;;2.70;;
64816;SDS011;69411;45.656;11.740;2023-07-22T02:57:43;3.47;;;2.67;;
64816;SDS011;69411;45.656;11.740;2023-07-22T03:00:11;4.88;;;2.63;;
64816;SDS011;69411;45.656;11.740;2023-07-22T03:02:39;4.65;;;2.95;;
64816;SDS011;69411;45.656;11.740;2023-07-22T03:05:06;4.57;;;2.67;;
64816;SDS011;69411;45.656;11.740;2023-07-22T03:07:36;4.72;;;3.05;;
64816;SDS011;69411;45.656;11.740;2023-07-22T03:10:03;4.70;;;2.80;;
64816;SDS011;69411;45.656;11.740;2023-07-22T03:12:30;3.97;;;2.53;;
64816;SDS011;69411;45.656;11.740;2023-07-22T03:14:56;2.95;;;2.28;;
64816;SDS011;69411;45.656;11.740;2023-07-22T03:17:22;2.80;;;2.30;;
64816;SDS011;69411;45.656;11.740;2023-07-22T03:19:48;4.80;;;2.45;;
64816;SDS011;69411;45.656;11.740;2023-07-22T03:22:15;4.07;;;2.42;;
64816;SDS011;69411;45.656;11.740;2023-07-22T03:24:41;4.85;;;2.63;;
64816;SDS011;69411;45.656;11.740;2023-07-22T03:27:08;5.70;;;2.78;;
64816;SDS011;69411;45.656;11.740;2023-07-22T03:29:34;3.97;;;2.40;;
64816;SDS011;69411;45.656;11.740;2023-07-22T03:32:00;6.65;;;2.80;;
64816;SDS011;69411;45.656;11.740;2023-07-22T03:34:29;3.20;;;2.47;;
64816;SDS011;69411;45.656;11.740;2023-07-22T03:36:56;4.00;;;2.50;;
64816;SDS011;69411;45.656;11.740;2023-07-22T03:39:22;4.55;;;2.50;;
64816;SDS011;69411;45.656;11.740;2023-07-22T03:41:48;5.18;;;2.55;;
64816;SDS011;69411;45.656;11.740;2023-07-22T03:44:14;2.53;;;2.20;;
64816;SDS011;69411;45.656;11.740;2023-07-22T03:46:40;3.83;;;2.55;;
64816;SDS011;69411;45.656;11.740;2023-07-22T03:49:06;4.20;;;2.67;;
64816;SDS011;69411;45.656;11.740;2023-07-22T03:51:32;4.57;;;2.53;;
64816;SDS011;69411;45.656;11.740;2023-07-22T03:53:58;3.67;;;2.60;;
64816;SDS011;69411;45.656;11.740;2023-07-22T03:56:25;4.32;;;2.65;;
64816;SDS011;69411;45.656;11.740;2023-07-22T03:58:51;4.45;;;2.72;;
64816;SDS011;69411;45.656;11.740;2023-07-22T04:01:18;3.80;;;2.33;;
64816;SDS011;69411;45.656;11.740;2023-07-22T04:03:44;3.83;;;2.30;;
64816;SDS011;69411;45.656;11.740;2023-07-22T04:06:10;4.78;;;2.53;;
64816;SDS011;69411;45.656;11.740;2023-07-22T04:08:36;5.30;;;2.75;;
64816;SDS011;69411;45.656;11.740;2023-07-22T04:11:02;6.50;;;2.63;;
64816;SDS011;69411;45.656;11.740;2023-07-22T04:13:28;3.45;;;2.38;;
64816;SDS011;69411;45.656;11.740;2023-07-22T04:15:55;3.55;;;2.67;;
64816;SDS011;69411;45.656;11.740;2023-07-22T04:18:21;5.10;;;3.00;;
64816;SDS011;69411;45.656;11.740;2023-07-22T04:20:48;4.72;;;2.80;;
64816;SDS011;69411;45.656;11.740;2023-07-22T04:23:21;6.10;;;3.13;;
64816;SDS011;69411;45.656;11.740;2023-07-22T04:25:47;4.13;;;2.72;;
64816;SDS011;69411;45.656;11.740;2023-07-22T04:28:13;6.07;;;3.15;;
64816;SDS011;69411;45.656;11.740;2023-07-22T04:30:39;5.40;;;2.85;;
64816;SDS011;69411;45.656;11.740;2023-07-22T04:33:05;5.25;;;2.60;;
64816;SDS011;69411;45.656;11.740;2023-07-22T04:35:31;4.13;;;2.63;;
64816;SDS011;69411;45.656;11.740;2023-07-22T04:37:59;5.97;;;2.90;;
64816;SDS011;69411;45.656;11.740;2023-07-22T04:40:25;5.18;;;2.80;;
64816;SDS011;69411;45.656;11.740;2023-07-22T04:42:51;5.18;;;2.78;;
64816;SDS011;69411;45.656;11.740;2023-07-22T04:45:17;3.72;;;2.78;;
64816;SDS011;69411;45.656;11.740;2023-07-22T04:47:43;4.88;;;2.90;;
64816;SDS011;69411;45.656;11.740;2023-07-22T04:50:12;4.10;;;2.83;;
64816;SDS011;69411;45.656;11.740;2023-07-22T04:52:43;5.93;;;2.83;;
64816;SDS011;69411;45.656;11.740;2023-07-22T04:55:13;4.25;;;2.47;;
64816;SDS011;69411;45.656;11.740;2023-07-22T04:57:40;3.90;;;2.50;;
64816;SDS011;69411;45.656;11.740;2023-07-22T05:00:10;4.20;;;2.67;;
64816;SDS011;69411;45.656;11.740;2023-07-22T05:02:42;4.15;;;2.70;;
64816;SDS011;69411;45.656;11.740;2023-07-22T05:05:14;5.03;;;2.60;;
64816;SDS011;69411;45.656;11.740;2023-07-22T05:07:41;3.70;;;2.80;;
64816;SDS011;69411;45.656;11.740;2023-07-22T05:10:08;3.17;;;2.42;;
64816;SDS011;69411;45.656;11.740;2023-07-22T05:12:38;3.92;;;2.78;;
64816;SDS011;69411;45.656;11.740;2023-07-22T05:15:05;4.57;;;2.50;;
64816;SDS011;69411;45.656;11.740;2023-07-22T05:17:31;5.45;;;2.40;;
64816;SDS011;69411;45.656;11.740;2023-07-22T05:19:58;4.97;;;2.70;;
64816;SDS011;69411;45.656;11.740;2023-07-22T05:22:24;3.97;;;2.50;;
64816;SDS011;69411;45.656;11.740;2023-07-22T05:24:50;2.65;;;2.20;;
64816;SDS011;69411;45.656;11.740;2023-07-22T05:27:16;4.28;;;2.50;;
64816;SDS011;69411;45.656;11.740;2023-07-22T05:29:43;8.35;;;2.65;;
64816;SDS011;69411;45.656;11.740;2023-07-22T05:32:10;34.28;;;4.53;;
64816;SDS011;69411;45.656;11.740;2023-07-22T05:34:36;26.23;;;4.15;;
64816;SDS011;69411;45.656;11.740;2023-07-22T05:37:02;8.70;;;2.92;;
64816;SDS011;69411;45.656;11.740;2023-07-22T05:39:28;7.32;;;2.65;;
64816;SDS011;69411;45.656;11.740;2023-07-22T05:41:54;8.80;;;3.35;;
64816;SDS011;69411;45.656;11.740;2023-07-22T05:44:21;5.20;;;3.05;;
64816;SDS011;69411;45.656;11.740;2023-07-22T05:46:47;5.00;;;2.92;;
64816;SDS011;69411;45.656;11.740;2023-07-22T05:49:13;4.35;;;2.90;;
64816;SDS011;69411;45.656;11.740;2023-07-22T05:51:39;4.22;;;2.65;;
64816;SDS011;69411;45.656;11.740;2023-07-22T05:54:05;3.72;;;2.50;;
64816;SDS011;69411;45.656;11.740;2023-07-22T05:56:32;4.82;;;2.47;;
64816;SDS011;69411;45.656;11.740;2023-07-22T06:01:23;4.68;;;2.60;;
64816;SDS011;69411;45.656;11.740;2023-07-22T06:03:50;4.75;;;2.33;;
64816;SDS011;69411;45.656;11.740;2023-07-22T06:06:16;3.35;;;2.60;;
64816;SDS011;69411;45.656;11.740;2023-07-22T06:08:43;2.53;;;2.30;;
64816;SDS011;69411;45.656;11.740;2023-07-22T06:11:09;2.90;;;2.35;;
64816;SDS011;69411;45.656;11.740;2023-07-22T06:13:35;3.58;;;2.50;;
64816;SDS011;69411;45.656;11.740;2023-07-22T06:16:01;4.30;;;2.33;;
64816;SDS011;69411;45.656;11.740;2023-07-22T06:18:28;2.67;;;2.30;;
64816;SDS011;69411;45.656;11.740;2023-07-22T06:20:53;4.68;;;2.50;;
64816;SDS011;69411;45.656;11.740;2023-07-22T06:23:19;3.17;;;2.30;;
64816;SDS011;69411;45.656;11.740;2023-07-22T06:25:46;5.07;;;2.50;;
64816;SDS011;69411;45.656;11.740;2023-07-22T06:28:11;3.85;;;2.38;;
64816;SDS011;69411;45.656;11.740;2023-07-22T06:30:37;2.47;;;2.20;;
64816;SDS011;69411;45.656;11.740;2023-07-22T06:33:03;5.85;;;2.42;;
64816;SDS011;69411;45.656;11.740;2023-07-22T06:35:30;3.28;;;2.20;;
64816;SDS011;69411;45.656;11.740;2023-07-22T06:37:56;3.58;;;2.38;;
64816;SDS011;69411;45.656;11.740;2023-07-22T06:40:22;3.85;;;2.53;;
64816;SDS011;69411;45.656;11.740;2023-07-22T06:42:48;3.95;;;2.20;;
64816;SDS011;69411;45.656;11.740;2023-07-22T06:45:15;3.80;;;2.45;;
64816;SDS011;69411;45.656;11.740;2023-07-22T06:47:41;3.63;;;2.30;;
64816;SDS011;69411;45.656;11.740;2023-07-22T06:50:07;4.05;;;2.78;;
64816;SDS011;69411;45.656;11.740;2023-07-22T06:52:33;3.22;;;2.47;;
64816;SDS011;69411;45.656;11.740;2023-07-22T06:55:00;3.13;;;2.30;;
64816;SDS011;69411;45.656;11.740;2023-07-22T06:57:26;2.95;;;2.10;;
64816;SDS011;69411;45.656;11.740;2023-07-22T06:59:55;2.45;;;2.25;;
64816;SDS011;69411;45.656;11.740;2023-07-22T07:02:21;3.53;;;2.50;;
64816;SDS011;69411;45.656;11.740;2023-07-22T07:04:48;4.90;;;2.33;;
64816;SDS011;69411;45.656;11.740;2023-07-22T07:07:14;2.58;;;2.20;;
64816;SDS011;69411;45.656;11.740;2023-07-22T07:09:41;3.65;;;2.00;;
64816;SDS011;69411;45.656;11.740;2023-07-22T07:12:07;2.20;;;2.00;;
64816;SDS011;69411;45.656;11.740;2023-07-22T07:14:34;4.32;;;2.58;;
64816;SDS011;69411;45.656;11.740;2023-07-22T07:17:00;2.92;;;2.38;;
64816;SDS011;69411;45.656;11.740;2023-07-22T07:19:27;3.95;;;2.60;;
64816;SDS011;69411;45.656;11.740;2023-07-22T07:21:53;2.70;;;2.10;;
64816;SDS011;69411;45.656;11.740;2023-07-22T07:24:19;3.95;;;2.35;;
64816;SDS011;69411;45.656;11.740;2023-07-22T07:26:46;2.50;;;2.20;;
64816;SDS011;69411;45.656;11.740;2023-07-22T07:29:12;2.97;;;1.98;;
64816;SDS011;69411;45.656;11.740;2023-07-22T07:31:38;2.47;;;1.98;;
64816;SDS011;69411;45.656;11.740;2023-07-22T07:34:04;3.50;;;2.28;;
64816;SDS011;69411;45.656;11.740;2023-07-22T07:36:31;2.55;;;2.05;;
64816;SDS011;69411;45.656;11.740;2023-07-22T07:38:58;3.28;;;2.13;;
64816;SDS011;69411;45.656;11.740;2023-07-22T07:41:24;6.38;;;2.50;;
64816;SDS011;69411;45.656;11.740;2023-07-22T07:43:50;3.45;;;2.47;;
64816;SDS011;69411;45.656;11.740;2023-07-22T07:46:18;3.97;;;2.20;;
64816;SDS011;69411;45.656;11.740;2023-07-22T07:48:50;3.10;;;2.35;;
64816;SDS011;69411;45.656;11.740;2023-07-22T07:51:18;3.38;;;2.40;;
64816;SDS011;69411;45.656;11.740;2023-07-22T07:53:46;3.28;;;2.30;;
64816;SDS011;69411;45.656;11.740;2023-07-22T07:56:13;3.20;;;2.50;;
64816;SDS011;69411;45.656;11.740;2023-07-22T07:58:39;2.45;;;1.92;;
64816;SDS011;69411;45.656;11.740;2023-07-22T08:01:06;3.10;;;2.50;;
64816;SDS011;69411;45.656;11.740;2023-07-22T08:03:33;2.58;;;2.30;;
64816;SDS011;69411;45.656;11.740;2023-07-22T08:06:00;4.03;;;2.15;;
64816;SDS011;69411;45.656;11.740;2023-07-22T08:08:27;2.92;;;2.10;;
64816;SDS011;69411;45.656;11.740;2023-07-22T08:11:14;3.30;;;2.13;;
64816;SDS011;69411;45.656;11.740;2023-07-22T08:13:41;3.90;;;2.47;;
64816;SDS011;69411;45.656;11.740;2023-07-22T08:16:10;3.53;;;2.53;;
64816;SDS011;69411;45.656;11.740;2023-07-22T08:18:37;3.40;;;2.40;;
64816;SDS011;69411;45.656;11.740;2023-07-22T08:21:03;3.25;;;2.45;;
64816;SDS011;69411;45.656;11.740;2023-07-22T08:23:32;3.65;;;2.40;;
64816;SDS011;69411;45.656;11.740;2023-07-22T08:25:58;4.13;;;2.58;;
64816;SDS011;69411;45.656;11.740;2023-07-22T08:28:25;3.17;;;2.38;;
64816;SDS011;69411;45.656;11.740;2023-07-22T08:30:53;3.20;;;2.30;;
64816;SDS011;69411;45.656;11.740;2023-07-22T08:33:21;3.47;;;2.17;;
64816;SDS011;69411;45.656;11.740;2023-07-22T08:35:48;3.85;;;2.28;;
64816;SDS011;69411;45.656;11.740;2023-07-22T08:38:16;4.50;;;2.33;;
64816;SDS011;69411;45.656;11.740;2023-07-22T08:40:42;3.42;;;2.30;;
64816;SDS011;69411;45.656;11.740;2023-07-22T08:43:09;3.75;;;2.30;;
64816;SDS011;69411;45.656;11.740;2023-07-22T08:45:38;3.35;;;2.40;;
64816;SDS011;69411;45.656;11.740;2023-07-22T08:48:08;3.97;;;2.40;;
64816;SDS011;69411;45.656;11.740;2023-07-22T08:53:16;3.40;;;2.35;;
64816;SDS011;69411;45.656;11.740;2023-07-22T08:55:45;3.83;;;2.55;;
64816;SDS011;69411;45.656;11.740;2023-07-22T08:58:13;3.03;;;2.33;;
64816;SDS011;69411;45.656;11.740;2023-07-22T09:00:39;4.25;;;2.30;;
64816;SDS011;69411;45.656;11.740;2023-07-22T09:03:06;3.80;;;2.10;;
64816;SDS011;69411;45.656;11.740;2023-07-22T09:05:32;4.53;;;2.63;;
64816;SDS011;69411;45.656;11.740;2023-07-22T09:08:04;3.88;;;2.33;;
64816;SDS011;69411;45.656;11.740;2023-07-22T09:10:31;4.65;;;2.40;;
64816;SDS011;69411;45.656;11.740;2023-07-22T09:12:59;2.35;;;2.15;;
64816;SDS011;69411;45.656;11.740;2023-07-22T09:15:26;5.70;;;2.50;;
64816;SDS011;69411;45.656;11.740;2023-07-22T09:17:53;3.80;;;2.10;;
64816;SDS011;69411;45.656;11.740;2023-07-22T09:20:19;5.45;;;2.40;;
64816;SDS011;69411;45.656;11.740;2023-07-22T09:22:48;3.08;;;2.22;;
64816;SDS011;69411;45.656;11.740;2023-07-22T09:25:23;4.72;;;2.25;;
64816;SDS011;69411;45.656;11.740;2023-07-22T09:27:59;4.68;;;2.45;;
64816;SDS011;69411;45.656;11.740;2023-07-22T09:32:56;4.03;;;2.25;;
64816;SDS011;69411;45.656;11.740;2023-07-22T09:35:28;3.42;;;2.35;;
64816;SDS011;69411;45.656;11.740;2023-07-22T09:37:57;4.35;;;2.55;;
64816;SDS011;69411;45.656;11.740;2023-07-22T09:40:25;3.78;;;2.45;;
64816;SDS011;69411;45.656;11.740;2023-07-22T09:42:56;4.45;;;2.20;;
64816;SDS011;69411;45.656;11.740;2023-07-22T09:45:27;5.32;;;2.45;;
64816;SDS011;69411;45.656;11.740;2023-07-22T09:47:55;3.08;;;2.38;;
64816;SDS011;69411;45.656;11.740;2023-07-22T09:50:23;3.65;;;2.58;;
64816;SDS011;69411;45.656;11.740;2023-07-22T09:52:51;3.55;;;2.65;;
64816;SDS011;69411;45.656;11.740;2023-07-22T09:55:24;2.72;;;2.33;;
64816;SDS011;69411;45.656;11.740;2023-07-22T09:57:54;4.47;;;2.55;;
64816;SDS011;69411;45.656;11.740;2023-07-22T10:00:23;3.67;;;2.42;;
64816;SDS011;69411;45.656;11.740;2023-07-22T10:02:51;3.42;;;2.50;;
64816;SDS011;69411;45.656;11.740;2023-07-22T10:05:18;3.22;;;2.15;;
64816;SDS011;69411;45.656;11.740;2023-07-22T10:10:15;3.05;;;2.25;;
64816;SDS011;69411;45.656;11.740;2023-07-22T10:12:43;3.50;;;2.20;;
64816;SDS011;69411;45.656;11.740;2023-07-22T10:15:10;3.00;;;2.33;;
64816;SDS011;69411;45.656;11.740;2023-07-22T10:17:38;2.85;;;2.38;;
64816;SDS011;69411;45.656;11.740;2023-07-22T10:20:06;4.50;;;2.20;;
64816;SDS011;69411;45.656;11.740;2023-07-22T10:22:34;2.70;;;2.00;;
64816;SDS011;69411;45.656;11.740;2023-07-22T10:25:03;2.58;;;2.03;;
64816;SDS011;69411;45.656;11.740;2023-07-22T10:27:31;4.82;;;1.90;;
64816;SDS011;69411;45.656;11.740;2023-07-22T10:29:58;3.80;;;2.08;;
64816;SDS011;69411;45.656;11.740;2023-07-22T10:32:31;2.65;;;1.98;;
64816;SDS011;69411;45.656;11.740;2023-07-22T10:34:58;3.45;;;2.10;;
64816;SDS011;69411;45.656;11.740;2023-07-22T10:37:31;2.92;;;2.47;;
64816;SDS011;69411;45.656;11.740;2023-07-22T10:40:44;4.25;;;2.83;;
64816;SDS011;69411;45.656;11.740;2023-07-22T10:42:56;4.60;;;2.50;;
64816;SDS011;69411;45.656;11.740;2023-07-22T10:45:29;4.03;;;2.70;;
64816;SDS011;69411;45.656;11.740;2023-07-22T10:48:00;2.97;;;2.30;;
64816;SDS011;69411;45.656;11.740;2023-07-22T10:56:04;5.07;;;2.50;;
64816;SDS011;69411;45.656;11.740;2023-07-22T11:06:53;3.80;;;2.75;;
64816;SDS011;69411;45.656;11.740;2023-07-22T11:11:56;6.68;;;3.10;;
64816;SDS011;69411;45.656;11.740;2023-07-22T11:14:27;5.13;;;2.90;;
64816;SDS011;69411;45.656;11.740;2023-07-22T11:16:58;5.20;;;2.92;;
64816;SDS011;69411;45.656;11.740;2023-07-22T11:19:26;3.92;;;2.58;;
64816;SDS011;69411;45.656;11.740;2023-07-22T11:21:53;4.88;;;2.33;;
64816;SDS011;69411;45.656;11.740;2023-07-22T11:24:20;3.22;;;2.45;;
64816;SDS011;69411;45.656;11.740;2023-07-22T11:26:48;6.20;;;2.83;;
64816;SDS011;69411;45.656;11.740;2023-07-22T11:29:14;5.00;;;2.90;;
64816;SDS011;69411;45.656;11.740;2023-07-22T11:31:42;5.35;;;3.05;;
64816;SDS011;69411;45.656;11.740;2023-07-22T11:34:20;5.47;;;3.50;;
64816;SDS011;69411;45.656;11.740;2023-07-22T11:36:48;5.13;;;3.58;;
64816;SDS011;69411;45.656;11.740;2023-07-22T11:39:19;4.40;;;3.30;;
64816;SDS011;69411;45.656;11.740;2023-07-22T11:41:48;5.47;;;2.95;;
64816;SDS011;69411;45.656;11.740;2023-07-22T11:44:16;4.05;;;2.78;;
64816;SDS011;69411;45.656;11.740;2023-07-22T11:46:48;4.70;;;3.00;;
64816;SDS011;69411;45.656;11.740;2023-07-22T11:51:55;5.07;;;2.75;;
64816;SDS011;69411;45.656;11.740;2023-07-22T11:54:35;3.85;;;2.65;;
64816;SDS011;69411;45.656;11.740;2023-07-22T11:57:15;4.18;;;2.83;;
64816;SDS011;69411;45.656;11.740;2023-07-22T12:04:55;4.07;;;2.70;;
64816;SDS011;69411;45.656;11.740;2023-07-22T12:07:23;4.95;;;2.90;;
64816;SDS011;69411;45.656;11.740;2023-07-22T12:09:54;5.40;;;3.05;;
64816;SDS011;69411;45.656;11.740;2023-07-22T12:12:43;5.25;;;3.10;;
64816;SDS011;69411;45.656;11.740;2023-07-22T12:15:18;5.72;;;3.10;;
64816;SDS011;69411;45.656;11.740;2023-07-22T12:17:46;5.63;;;3.28;;
64816;SDS011;69411;45.656;11.740;2023-07-22T12:20:12;5.68;;;2.80;;
64816;SDS011;69411;45.656;11.740;2023-07-22T12:22:42;4.47;;;3.10;;
64816;SDS011;69411;45.656;11.740;2023-07-22T12:25:09;4.57;;;3.35;;
64816;SDS011;69411;45.656;11.740;2023-07-22T12:27:36;6.15;;;3.20;;
64816;SDS011;69411;45.656;11.740;2023-07-22T12:30:03;5.63;;;3.05;;
64816;SDS011;69411;45.656;11.740;2023-07-22T12:34:56;5.15;;;2.67;;
64816;SDS011;69411;45.656;11.740;2023-07-22T12:37:21;4.28;;;2.60;;
64816;SDS011;69411;45.656;11.740;2023-07-22T12:39:47;4.55;;;2.80;;
64816;SDS011;69411;45.656;11.740;2023-07-22T12:42:13;4.88;;;2.83;;
64816;SDS011;69411;45.656;11.740;2023-07-22T12:44:39;6.38;;;3.10;;
64816;SDS011;69411;45.656;11.740;2023-07-22T12:47:05;3.88;;;2.90;;
64816;SDS011;69411;45.656;11.740;2023-07-22T12:49:31;5.22;;;2.80;;
64816;SDS011;69411;45.656;11.740;2023-07-22T12:51:58;4.32;;;2.90;;
64816;SDS011;69411;45.656;11.740;2023-07-22T12:54:29;3.42;;;2.75;;
64816;SDS011;69411;45.656;11.740;2023-07-22T12:56:56;4.45;;;2.90;;
64816;SDS011;69411;45.656;11.740;2023-07-22T12:59:22;6.60;;;2.95;;
64816;SDS011;69411;45.656;11.740;2023-07-22T13:01:48;5.70;;;2.97;;
64816;SDS011;69411;45.656;11.740;2023-07-22T13:04:14;4.88;;;3.10;;
64816;SDS011;69411;45.656;11.740;2023-07-22T13:06:40;5.32;;;3.40;;
64816;SDS011;69411;45.656;11.740;2023-07-22T13:09:06;2.88;;;2.47;;
64816;SDS011;69411;45.656;11.740;2023-07-22T13:11:34;5.28;;;3.00;;
64816;SDS011;69411;45.656;11.740;2023-07-22T13:14:01;6.13;;;2.78;;
64816;SDS011;69411;45.656;11.740;2023-07-22T13:16:27;4.15;;;2.67;;
64816;SDS011;69411;45.656;11.740;2023-07-22T13:18:53;5.55;;;2.95;;
64816;SDS011;69411;45.656;11.740;2023-07-22T13:21:19;5.20;;;3.10;;
64816;SDS011;69411;45.656;11.740;2023-07-22T13:23:45;5.53;;;3.20;;
64816;SDS011;69411;45.656;11.740;2023-07-22T13:26:11;6.15;;;3.25;;
64816;SDS011;69411;45.656;11.740;2023-07-22T13:28:37;7.68;;;3.40;;
64816;SDS011;69411;45.656;11.740;2023-07-22T13:31:03;4.28;;;2.85;;
64816;SDS011;69411;45.656;11.740;2023-07-22T13:33:29;4.30;;;3.00;;
64816;SDS011;69411;45.656;11.740;2023-07-22T13:35:56;5.32;;;3.08;;
64816;SDS011;69411;45.656;11.740;2023-07-22T13:38:22;5.13;;;3.05;;
64816;SDS011;69411;45.656;11.740;2023-07-22T13:40:48;4.93;;;3.30;;
64816;SDS011;69411;45.656;11.740;2023-07-22T13:43:15;4.65;;;2.90;;
64816;SDS011;69411;45.656;11.740;2023-07-22T13:45:41;3.88;;;2.88;;
64816;SDS011;69411;45.656;11.740;2023-07-22T13:48:06;5.63;;;3.45;;
64816;SDS011;69411;45.656;11.740;2023-07-22T13:50:32;6.28;;;3.00;;
64816;SDS011;69411;45.656;11.740;2023-07-22T13:52:58;5.45;;;3.38;;
64816;SDS011;69411;45.656;11.740;2023-07-22T13:55:24;5.25;;;3.30;;
64816;SDS011;69411;45.656;11.740;2023-07-22T13:57:50;4.30;;;2.70;;
64816;SDS011;69411;45.656;11.740;2023-07-22T14:00:16;4.72;;;2.92;;
64816;SDS011;69411;45.656;11.740;2023-07-22T14:02:43;5.25;;;3.00;;
64816;SDS011;69411;45.656;11.740;2023-07-22T14:05:09;4.53;;;2.92;;
64816;SDS011;69411;45.656;11.740;2023-07-22T14:07:35;5.93;;;3.22;;
64816;SDS011;69411;45.656;11.740;2023-07-22T14:10:02;6.20;;;3.08;;
64816;SDS011;69411;45.656;11.740;2023-07-22T14:12:29;3.85;;;2.92;;
64816;SDS011;69411;45.656;11.740;2023-07-22T14:14:55;7.13;;;2.95;;
64816;SDS011;69411;45.656;11.740;2023-07-22T14:17:21;4.40;;;2.60;;
64816;SDS011;69411;45.656;11.740;2023-07-22T14:19:47;3.83;;;2.83;;
64816;SDS011;69411;45.656;11.740;2023-07-22T14:22:13;3.78;;;3.05;;
64816;SDS011;69411;45.656;11.740;2023-07-22T14:24:40;4.00;;;2.85;;
64816;SDS011;69411;45.656;11.740;2023-07-22T14:27:06;4.88;;;3.30;;
64816;SDS011;69411;45.656;11.740;2023-07-22T14:29:32;5.90;;;2.90;;
64816;SDS011;69411;45.656;11.740;2023-07-22T14:31:58;7.65;;;3.95;;
64816;SDS011;69411;45.656;11.740;2023-07-22T14:34:24;4.43;;;3.10;;
64816;SDS011;69411;45.656;11.740;2023-07-22T14:36:50;4.25;;;3.10;;
64816;SDS011;69411;45.656;11.740;2023-07-22T14:39:16;5.63;;;3.25;;
64816;SDS011;69411;45.656;11.740;2023-07-22T14:41:42;5.25;;;3.17;;
64816;SDS011;69411;45.656;11.740;2023-07-22T14:44:09;4.50;;;3.10;;
64816;SDS011;69411;45.656;11.740;2023-07-22T14:46:34;7.07;;;3.03;;
64816;SDS011;69411;45.656;11.740;2023-07-22T14:49:01;4.32;;;2.78;;
64816;SDS011;69411;45.656;11.740;2023-07-22T14:51:27;4.22;;;2.70;;
64816;SDS011;69411;45.656;11.740;2023-07-22T14:53:53;6.30;;;3.20;;
64816;SDS011;69411;45.656;11.740;2023-07-22T14:56:19;4.50;;;3.08;;
64816;SDS011;69411;45.656;11.740;2023-07-22T14:58:45;5.10;;;3.25;;
64816;SDS011;69411;45.656;11.740;2023-07-22T15:01:11;5.63;;;3.10;;
64816;SDS011;69411;45.656;11.740;2023-07-22T15:03:37;4.38;;;2.92;;
64816;SDS011;69411;45.656;11.740;2023-07-22T15:06:04;3.85;;;2.90;;
64816;SDS011;69411;45.656;11.740;2023-07-22T15:08:31;5.07;;;3.20;;
64816;SDS011;69411;45.656;11.740;2023-07-22T15:10:57;5.43;;;3.80;;